Time;durP1;ratioP1;P1;durP2;ratioP2;P2;SDS_P1;SDS_P2;PMS_P1;PMS_P2;Temp;Humidity;BMP_temperature;BMP_pressure;BME280_temperature;BME280_humidity;BME280_pressure;Samples;Min_cycle;Max_cycle;Signal;HPM_P1;HPM_P2
2021/01/18 00:02:03;;;;;;;95.50;52.73;;;38.40;2099.20;;;;;;5005108;28;20026;-89
2021/01/18 00:04:29;;;;;;;99.93;55.87;;;38.40;2073.60;;;;;;5002180;28;20400;-92
2021/01/18 00:06:55;;;;;;;87.63;52.50;;;38.40;2073.60;;;;;;5004654;28;20026;-90
2021/01/18 00:09:21;;;;;;;59.43;37.30;;;38.40;2073.60;;;;;;5001809;28;20450;-90
2021/01/18 00:11:48;;;;;;;66.47;36.37;;;38.40;2073.60;;;;;;5002320;28;20116;-91
2021/01/18 00:14:14;;;;;;;68.63;38.27;;;38.40;2048.00;;;;;;5002300;28;20037;-92
2021/01/18 00:16:40;;;;;;;62.30;36.33;;;38.40;2048.00;;;;;;4985899;28;20026;-92
2021/01/18 00:19:05;;;;;;;55.83;35.97;;;38.50;2048.00;;;;;;4980046;28;20035;-91
2021/01/18 00:21:31;;;;;;;49.07;29.43;;;38.40;2048.00;;;;;;4980775;28;20027;-93
2021/01/18 00:23:57;;;;;;;46.93;29.27;;;38.40;2048.00;;;;;;4982063;28;20106;-90
2021/01/18 00:26:23;;;;;;;56.77;32.57;;;13.70;2073.60;;;;;;4982133;28;20037;-91
2021/01/18 00:28:49;;;;;;;56.27;33.63;;;13.40;2073.60;;;;;;4982172;28;20042;-93
2021/01/18 00:31:14;;;;;;;59.97;32.87;;;13.70;2073.60;;;;;;4981701;28;20122;-90
2021/01/18 00:33:40;;;;;;;65.30;37.60;;;13.60;2073.60;;;;;;4980977;28;20030;-91
2021/01/18 00:36:07;;;;;;;67.67;39.27;;;13.70;2073.60;;;;;;4981681;28;20026;-91
2021/01/18 00:38:34;;;;;;;68.23;40.70;;;13.70;2099.20;;;;;;4982632;28;20031;-90
2021/01/18 00:41:00;;;;;;;73.83;42.17;;;38.40;2124.80;;;;;;4997835;28;20034;-92
2021/01/18 00:43:25;;;;;;;82.70;47.97;;;38.40;2124.80;;;;;;4999759;28;20077;-89
2021/01/18 00:45:51;;;;;;;95.23;48.73;;;38.40;2124.80;;;;;;5000647;28;20026;-91
2021/01/18 00:48:17;;;;;;;76.03;45.00;;;38.40;2124.80;;;;;;4982360;28;20064;-92
2021/01/18 00:50:42;;;;;;;71.47;41.30;;;13.70;2150.40;;;;;;4982716;28;20034;-91
2021/01/18 00:53:09;;;;;;;61.47;38.73;;;13.70;2124.80;;;;;;4988801;28;20066;-90
2021/01/18 00:55:37;;;;;;;63.60;35.33;;;13.70;2124.80;;;;;;5003661;28;20030;-90
2021/01/18 00:58:03;;;;;;;57.67;32.57;;;13.70;2124.80;;;;;;5003316;28;20019;-90
2021/01/18 01:00:44;;;;;;;54.80;32.03;;;38.40;2150.40;;;;;;5004066;28;20014;-87
2021/01/18 01:03:13;;;;;;;62.83;35.13;;;38.50;2150.40;;;;;;5003795;28;20022;-89
2021/01/18 01:05:39;;;;;;;56.73;32.97;;;38.50;2150.40;;;;;;4992795;28;20026;-88
2021/01/18 01:08:05;;;;;;;86.50;44.87;;;38.40;2124.80;;;;;;4981184;28;20038;-93
2021/01/18 01:10:33;;;;;;;58.90;36.33;;;38.50;2124.80;;;;;;4985655;28;20095;-87
2021/01/18 01:13:04;;;;;;;54.13;31.77;;;38.50;2124.80;;;;;;4984703;28;20081;-89
2021/01/18 01:15:31;;;;;;;62.10;36.20;;;38.50;2124.80;;;;;;4981365;28;20030;-88
2021/01/18 01:17:57;;;;;;;68.27;37.87;;;38.40;2124.80;;;;;;4981026;28;20037;-88
2021/01/18 01:20:24;;;;;;;67.87;37.50;;;38.60;2150.40;;;;;;4979817;28;20073;-88
2021/01/18 01:22:50;;;;;;;62.87;36.50;;;38.60;2124.80;;;;;;4980161;28;20023;-88
2021/01/18 01:25:18;;;;;;;55.20;32.60;;;38.70;2176.00;;;;;;4980196;28;20523;-87
2021/01/18 01:27:45;;;;;;;48.43;29.37;;;38.70;2176.00;;;;;;4980657;28;20026;-89
2021/01/18 01:30:16;;;;;;;43.80;25.73;;;38.80;2176.00;;;;;;4980805;28;20043;-89
2021/01/18 01:32:48;;;;;;;56.35;30.70;;;38.70;2176.00;;;;;;4998024;28;20026;-89
2021/01/18 01:35:16;;;;;;;51.63;31.03;;;38.60;2150.40;;;;;;4980261;28;20034;-88
2021/01/18 01:37:42;;;;;;;51.33;31.77;;;38.50;2176.00;;;;;;4980525;28;20034;-88
2021/01/18 01:40:10;;;;;;;66.43;33.07;;;38.40;2176.00;;;;;;4981337;28;20384;-88
2021/01/18 01:42:36;;;;;;;68.13;37.47;;;38.40;2176.00;;;;;;4981144;28;20026;-89
2021/01/18 01:45:04;;;;;;;66.30;38.97;;;38.40;2150.40;;;;;;4980907;28;20038;-88
2021/01/18 01:47:33;;;;;;;64.47;35.17;;;13.70;2150.40;;;;;;4980611;28;20038;-89
2021/01/18 01:50:03;;;;;;;64.80;39.57;;;38.40;2150.40;;;;;;4999361;28;20084;-88
2021/01/18 01:52:30;;;;;;;67.63;38.23;;;13.70;2124.80;;;;;;5000093;28;20022;-89
2021/01/18 01:55:00;;;;;;;77.80;43.87;;;13.70;2124.80;;;;;;5001447;28;20026;-91
2021/01/18 01:57:28;;;;;;;84.93;43.37;;;13.70;2124.80;;;;;;5018127;28;20017;-86
2021/01/18 01:59:59;;;;;;;80.30;44.50;;;13.70;2124.80;;;;;;5020518;28;20052;-88
2021/01/18 02:02:25;;;;;;;89.97;52.03;;;13.70;2150.40;;;;;;5019733;28;20049;-87
2021/01/18 02:04:50;;;;;;;94.13;51.10;;;13.70;2176.00;;;;;;5019616;28;20017;-87
2021/01/18 02:07:21;;;;;;;77.57;44.90;;;38.40;2201.60;;;;;;5020092;28;20026;-87
2021/01/18 02:09:46;;;;;;;72.50;41.40;;;38.40;2176.00;;;;;;5019402;28;20061;-86
2021/01/18 02:12:12;;;;;;;76.40;44.70;;;13.70;2201.60;;;;;;5006779;28;20080;-87
2021/01/18 02:15:05;;;;;;;88.10;48.50;;;13.70;2150.40;;;;;;5002584;28;20034;-88
2021/01/18 02:17:43;;;;;;;82.07;44.50;;;38.40;2176.00;;;;;;4942562;29;20504;-88
2021/01/18 02:20:44;;;;;;;88.60;45.63;;;38.40;2176.00;;;;;;4941582;29;20288;-88
2021/01/18 02:23:47;;;;;;;99.90;51.00;;;13.70;2150.40;;;;;;4941842;29;20031;-85
2021/01/18 02:26:39;;;;;;;60.88;35.20;;;38.40;2176.00;;;;;;5014401;23;20070;-87
2021/01/18 02:29:28;;;;;;;69.50;38.53;;;38.40;2176.00;;;;;;5001536;28;20041;-88
2021/01/18 02:32:12;;;;;;;66.37;38.40;;;38.40;2176.00;;;;;;4999771;28;20030;-88
2021/01/18 02:35:03;;;;;;;60.63;34.83;;;38.40;2176.00;;;;;;5015762;28;20023;-88
2021/01/18 02:37:47;;;;;;;57.67;35.17;;;38.60;2201.60;;;;;;4939431;29;20038;-90
2021/01/18 02:40:31;;;;;;;60.07;35.80;;;38.60;2201.60;;;;;;4939298;29;20082;-87
2021/01/18 02:43:07;;;;;;;59.17;34.17;;;38.50;2176.00;;;;;;4939435;29;20035;-87
2021/01/18 02:45:35;;;;;;;62.40;37.13;;;38.50;2176.00;;;;;;4938675;29;20028;-87
2021/01/18 02:48:01;;;;;;;61.20;38.20;;;38.60;2201.60;;;;;;4935107;28;20080;-91
2021/01/18 02:50:29;;;;;;;68.23;36.77;;;38.40;2176.00;;;;;;4950208;29;20055;-87
2021/01/18 02:52:55;;;;;;;63.10;34.93;;;38.50;2176.00;;;;;;4939366;29;20023;-86
2021/01/18 02:55:21;;;;;;;65.53;35.73;;;38.60;2176.00;;;;;;4939213;29;20043;-92
2021/01/18 02:57:50;;;;;;;53.83;33.83;;;38.50;2150.40;;;;;;4939942;29;20031;-92
2021/01/18 03:00:21;;;;;;;62.97;32.73;;;38.50;2150.40;;;;;;4939303;29;20079;-87
2021/01/18 03:03:05;;;;;;;64.30;34.93;;;38.50;2124.80;;;;;;4939483;29;20057;-90
2021/01/18 03:05:43;;;;;;;72.83;38.10;;;38.50;2124.80;;;;;;4939225;29;20028;-89
2021/01/18 03:08:18;;;;;;;75.73;42.67;;;38.50;2124.80;;;;;;4939153;29;20130;-87
2021/01/18 03:10:55;;;;;;;70.37;40.73;;;38.50;2124.80;;;;;;4939525;29;20099;-88
2021/01/18 03:13:32;;;;;;;67.40;39.30;;;38.50;2124.80;;;;;;4943131;28;20027;-86
2021/01/18 03:16:04;;;;;;;131.00;73.17;;;38.60;2124.80;;;;;;4997969;28;20084;-87
2021/01/18 03:18:33;;;;;;;98.00;53.03;;;38.60;2124.80;;;;;;4997620;28;20022;-89
2021/01/18 03:21:02;;;;;;;170.53;97.00;;;38.70;2150.40;;;;;;4997700;28;20555;-87
2021/01/18 03:23:44;;;;;;;122.50;66.37;;;38.60;2150.40;;;;;;4997950;28;20025;-88
2021/01/18 03:26:28;;;;;;;95.30;53.83;;;38.60;2150.40;;;;;;4997548;28;20499;-88
2021/01/18 03:28:56;;;;;;;91.13;55.37;;;38.80;2150.40;;;;;;4997625;28;20048;-91
2021/01/18 03:31:31;;;;;;;72.83;43.93;;;38.80;2150.40;;;;;;4997310;28;20053;-86
2021/01/18 03:34:07;;;;;;;68.33;39.77;;;38.80;2150.40;;;;;;4997222;28;20033;-92
2021/01/18 03:36:39;;;;;;;63.57;37.60;;;38.80;2150.40;;;;;;4997598;28;20037;-90
2021/01/18 03:39:12;;;;;;;78.37;47.77;;;38.80;2124.80;;;;;;4997845;28;20026;-87
2021/01/18 03:41:37;;;;;;;73.07;44.13;;;38.80;2124.80;;;;;;4998793;28;20033;-87
2021/01/18 03:44:03;;;;;;;78.53;45.97;;;38.80;2124.80;;;;;;5001666;28;20026;-87
2021/01/18 03:46:35;;;;;;;93.73;53.23;;;38.70;2124.80;;;;;;5031329;28;20034;-89
2021/01/18 03:49:04;;;;;;;85.63;47.37;;;38.70;2124.80;;;;;;5017277;28;20030;-91
2021/01/18 03:51:39;;;;;;;99.87;56.33;;;38.60;2099.20;;;;;;5021046;28;20022;-87
2021/01/18 03:54:06;;;;;;;90.03;51.20;;;38.70;2124.80;;;;;;5020718;28;20025;-89
2021/01/18 03:56:42;;;;;;;119.13;63.43;;;38.70;2124.80;;;;;;5017484;28;20522;-91
2021/01/18 03:59:08;;;;;;;135.67;70.50;;;38.70;2124.80;;;;;;5003205;28;20037;-87
2021/01/18 04:01:38;;;;;;;155.03;83.80;;;38.70;2150.40;;;;;;5002964;28;20026;-88
2021/01/18 04:04:04;;;;;;;147.03;82.27;;;38.70;2150.40;;;;;;5001148;28;20411;-91
2021/01/18 04:06:34;;;;;;;122.23;71.63;;;38.80;2150.40;;;;;;5001243;28;20113;-87
2021/01/18 04:09:00;;;;;;;117.13;63.43;;;38.90;2201.60;;;;;;5001082;28;20133;-88
2021/01/18 04:11:26;;;;;;;126.40;70.23;;;38.90;2201.60;;;;;;5001415;28;20065;-87
2021/01/18 04:13:52;;;;;;;106.53;57.30;;;39.10;2201.60;;;;;;5001704;28;20022;-89
2021/01/18 04:16:17;;;;;;;96.30;50.30;;;39.00;2201.60;;;;;;5001587;28;20048;-86
2021/01/18 04:18:43;;;;;;;117.20;66.23;;;39.10;2201.60;;;;;;5000956;28;20042;-90
2021/01/18 04:21:09;;;;;;;114.03;64.73;;;39.00;2201.60;;;;;;5001284;28;20472;-90
2021/01/18 04:23:34;;;;;;;111.40;62.60;;;39.10;2201.60;;;;;;5001512;28;20096;-88
2021/01/18 04:26:00;;;;;;;102.00;53.93;;;39.10;2176.00;;;;;;4997770;28;20129;-88
2021/01/18 04:28:26;;;;;;;104.70;56.87;;;39.10;2176.00;;;;;;4997483;28;20030;-88
2021/01/18 04:30:51;;;;;;;90.90;51.03;;;39.20;2201.60;;;;;;4997416;28;20081;-87
2021/01/18 04:33:17;;;;;;;96.77;53.10;;;39.30;2176.00;;;;;;4997381;28;20030;-86
2021/01/18 04:35:43;;;;;;;104.33;54.07;;;39.20;2176.00;;;;;;4999581;28;20396;-87
2021/01/18 04:38:08;;;;;;;93.77;54.00;;;39.30;2176.00;;;;;;5000948;28;20476;-87
2021/01/18 04:40:35;;;;;;;104.80;58.53;;;39.30;2176.00;;;;;;5000062;28;20113;-89
2021/01/18 04:43:07;;;;;;;103.63;59.13;;;64.20;2201.60;;;;;;4999066;28;20084;-86
2021/01/18 04:45:34;;;;;;;70.07;41.00;;;64.40;2201.60;;;;;;5000407;28;20034;-89
2021/01/18 04:48:00;;;;;;;57.00;29.87;;;64.70;2201.60;;;;;;4998397;28;20049;-88
2021/01/18 04:50:28;;;;;;;50.77;28.53;;;64.90;2201.60;;;;;;4996686;28;20493;-87
2021/01/18 04:52:56;;;;;;;48.23;25.27;;;89.60;2201.60;;;;;;4996850;28;20023;-87
2021/01/18 04:55:57;;;;;;;50.07;25.27;;;89.60;2201.60;;;;;;4996980;28;20044;-91
2021/01/18 04:58:28;;;;;;;79.97;37.97;;;64.80;2201.60;;;;;;4997171;28;20045;-91
2021/01/18 05:00:55;;;;;;;53.17;31.23;;;64.70;2176.00;;;;;;4996812;28;20033;-90
2021/01/18 05:03:22;;;;;;;72.67;38.97;;;64.70;2150.40;;;;;;4995881;28;20026;-86
2021/01/18 05:05:57;;;;;;;73.60;41.50;;;89.60;2201.60;;;;;;4996241;28;20022;-88
2021/01/18 05:08:50;;;;;;;65.27;37.47;;;64.90;2201.60;;;;;;4995567;28;20109;-87
2021/01/18 05:11:16;;;;;;;86.13;46.37;;;64.80;2201.60;;;;;;4997293;28;20026;-88
2021/01/18 05:13:43;;;;;;;75.83;39.77;;;64.70;2150.40;;;;;;4996580;28;20022;-92
2021/01/18 05:16:09;;;;;;;83.00;41.80;;;64.60;2176.00;;;;;;4998479;28;20045;-87
2021/01/18 05:18:37;;;;;;;81.47;43.33;;;64.50;2150.40;;;;;;4999446;28;20050;-87
2021/01/18 05:21:04;;;;;;;70.90;41.03;;;64.40;2124.80;;;;;;5000936;28;20026;-88
2021/01/18 05:23:30;;;;;;;70.67;41.43;;;64.50;2150.40;;;;;;4997183;28;20030;-93
2021/01/18 05:26:15;;;;;;;63.50;37.30;;;64.50;2150.40;;;;;;5001430;28;20119;-88
2021/01/18 05:28:48;;;;;;;61.73;32.90;;;64.60;2150.40;;;;;;5004191;28;20049;-91
2021/01/18 05:31:26;;;;;;;56.90;31.90;;;64.70;2150.40;;;;;;5002502;28;20030;-91
2021/01/18 05:34:01;;;;;;;51.50;28.50;;;64.80;2150.40;;;;;;5001845;28;20034;-87
2021/01/18 05:36:47;;;;;;;38.93;22.73;;;64.90;2150.40;;;;;;5002842;28;20069;-92
2021/01/18 05:39:43;;;;;;;48.90;25.20;;;89.60;2150.40;;;;;;5007344;28;20026;-87
2021/01/18 05:42:20;;;;;;;46.40;23.30;;;89.90;2124.80;;;;;;4959746;29;20020;-88
2021/01/18 05:44:47;;;;;;;51.80;27.37;;;89.80;2150.40;;;;;;4960698;29;20035;-85
2021/01/18 05:47:15;;;;;;;45.13;26.83;;;89.70;2099.20;;;;;;4960823;29;20043;-87
2021/01/18 05:49:43;;;;;;;46.67;27.20;;;89.80;2099.20;;;;;;4961357;29;20042;-85
2021/01/18 05:52:30;;;;;;;43.83;28.63;;;89.80;2099.20;;;;;;4961957;29;20063;-86
2021/01/18 05:55:17;;;;;;;38.80;24.07;;;90.00;2099.20;;;;;;4960781;29;20031;-86
2021/01/18 05:58:01;;;;;;;71.33;39.73;;;90.10;2099.20;;;;;;4961206;29;20027;-90
2021/01/18 06:00:33;;;;;;;74.57;39.47;;;90.10;2073.60;;;;;;4952850;29;20031;-87
2021/01/18 06:03:01;;;;;;;89.35;43.38;;;90.10;2048.00;;;;;;4949641;29;20050;-88
2021/01/18 06:05:32;;;;;;;110.90;59.37;;;90.10;2048.00;;;;;;4950174;28;20035;-87
2021/01/18 06:08:08;;;;;;;62.83;35.23;;;90.20;2048.00;;;;;;4946875;29;20608;-88
2021/01/18 06:10:34;;;;;;;61.33;37.80;;;90.50;2048.00;;;;;;4945036;29;20536;-86
2021/01/18 06:13:01;;;;;;;72.57;38.63;;;115.20;2073.60;;;;;;4944806;29;20019;-87
2021/01/18 06:15:26;;;;;;;66.43;38.30;;;115.40;2099.20;;;;;;4944596;29;20066;-87
2021/01/18 06:17:57;;;;;;;71.80;38.90;;;115.70;2124.80;;;;;;4953095;28;20475;-86
2021/01/18 06:20:28;;;;;;;90.90;53.67;;;115.60;2150.40;;;;;;4992368;28;20030;-87
2021/01/18 06:22:55;;;;;;;84.67;50.93;;;115.30;2150.40;;;;;;4992309;28;20033;-88
2021/01/18 06:25:31;;;;;;;59.23;35.53;;;90.50;2099.20;;;;;;4992602;28;20062;-85
2021/01/18 06:27:57;;;;;;;64.07;37.13;;;90.30;2099.20;;;;;;4980533;28;20037;-92
2021/01/18 06:30:25;;;;;;;70.50;40.77;;;90.30;2099.20;;;;;;4990678;28;20113;-86
2021/01/18 06:32:54;;;;;;;64.93;39.37;;;90.30;2099.20;;;;;;4995534;28;20027;-92
2021/01/18 06:35:25;;;;;;;75.17;42.50;;;90.20;2073.60;;;;;;4994967;28;20029;-86
2021/01/18 06:37:58;;;;;;;222.07;105.70;;;90.10;2048.00;;;;;;4995045;28;20029;-86
2021/01/18 06:40:32;;;;;;;;;;;90.00;2022.40;;;;;;5000649;28;20022;-86
2021/01/18 06:42:59;;;;;;;126.83;67.57;;;90.10;2022.40;;;;;;5005858;28;19992;-86
2021/01/18 06:45:30;;;;;;;102.07;56.03;;;90.10;2022.40;;;;;;5012501;28;20042;-84
2021/01/18 06:47:57;;;;;;;65.00;37.60;;;90.20;2022.40;;;;;;5016059;28;20058;-86
2021/01/18 06:50:28;;;;;;;43.23;25.77;;;115.30;2022.40;;;;;;5009353;28;20046;-87
2021/01/18 06:52:55;;;;;;;44.60;26.17;;;115.40;2048.00;;;;;;5001197;28;20030;-88
2021/01/18 06:55:32;;;;;;;72.23;36.53;;;115.70;2022.40;;;;;;4996031;28;20038;-86
2021/01/18 06:58:19;;;;;;;75.57;37.97;;;115.80;2022.40;;;;;;4995306;28;20027;-86
2021/01/18 07:00:47;;;;;;;80.30;46.30;;;115.90;2048.00;;;;;;4994407;28;20042;-86
2021/01/18 07:03:40;;;;;;;81.33;44.07;;;115.70;2022.40;;;;;;4996525;28;20026;-86
2021/01/18 07:06:30;;;;;;;72.57;38.78;;;115.50;2048.00;;;;;;4988726;28;20088;-86
2021/01/18 07:08:58;;;;;;;157.23;77.80;;;115.50;2048.00;;;;;;4890835;29;20064;-86
2021/01/18 07:11:25;;;;;;;400.97;192.33;;;115.30;2022.40;;;;;;4904201;29;20037;-86
2021/01/18 07:13:51;;;;;;;303.20;160.03;;;115.30;2022.40;;;;;;4904605;29;20044;-87
2021/01/18 07:16:25;;;;;;;113.77;66.17;;;115.20;1996.80;;;;;;4905442;29;20028;-86
2021/01/18 07:18:56;;;;;;;131.63;74.20;;;90.40;1971.20;;;;;;4904879;29;20032;-86
2021/01/18 07:21:27;;;;;;;88.07;49.25;;;90.50;1971.20;;;;;;4921891;29;20102;-85
2021/01/18 07:23:54;;;;;;;126.17;67.83;;;115.20;1996.80;;;;;;4908609;29;20036;-86
2021/01/18 07:26:55;;;;;;;127.90;69.43;;;115.30;1996.80;;;;;;4908639;29;20056;-86
2021/01/18 07:29:26;;;;;;;169.53;93.63;;;115.20;1996.80;;;;;;4908484;29;20411;-86
2021/01/18 07:31:57;;;;;;;177.37;100.33;;;90.40;1945.60;;;;;;4908264;29;20066;-87
2021/01/18 07:34:25;;;;;;;168.30;91.63;;;90.30;1945.60;;;;;;4905557;29;20043;-88
2021/01/18 07:36:52;;;;;;;139.27;77.20;;;90.10;1971.20;;;;;;4905344;29;20505;-88
2021/01/18 07:39:25;;;;;;;124.80;68.70;;;90.00;1971.20;;;;;;4905129;29;20450;-88
2021/01/18 07:41:51;;;;;;;141.43;78.20;;;90.10;1971.20;;;;;;4905225;29;20029;-86
2021/01/18 07:44:40;;;;;;;108.83;66.10;;;89.90;1945.60;;;;;;4905399;29;20064;-87
2021/01/18 07:47:09;;;;;;;110.97;66.30;;;89.90;1920.00;;;;;;5000894;28;20030;-87
2021/01/18 07:49:51;;;;;;;124.73;74.60;;;89.70;1920.00;;;;;;5001487;28;20038;-86
2021/01/18 07:52:19;;;;;;;133.13;76.30;;;89.60;1945.60;;;;;;5001352;28;20048;-87
2021/01/18 07:54:46;;;;;;;145.03;76.70;;;89.60;1945.60;;;;;;5002288;28;20351;-87
2021/01/18 07:57:32;;;;;;;142.37;82.40;;;89.70;1945.60;;;;;;5001635;28;20038;-87
2021/01/18 08:00:16;;;;;;;126.90;75.10;;;89.60;1996.80;;;;;;5001456;28;20369;-86
2021/01/18 08:02:46;;;;;;;126.67;69.93;;;64.90;1971.20;;;;;;5001991;28;20030;-88
2021/01/18 08:05:33;;;;;;;134.43;73.17;;;64.80;1945.60;;;;;;5001971;28;20426;-86
2021/01/18 08:08:02;;;;;;;165.80;94.40;;;64.60;1945.60;;;;;;5003450;28;20053;-91
2021/01/18 08:10:50;;;;;;;132.90;78.23;;;64.50;1920.00;;;;;;5003143;28;20030;-86
2021/01/18 08:13:39;;;;;;;118.80;66.80;;;64.50;1920.00;;;;;;5000957;28;20117;-87
2021/01/18 08:16:11;;;;;;;115.10;64.70;;;64.40;1894.40;;;;;;4986010;28;20030;-87
2021/01/18 08:19:06;;;;;;;90.47;52.30;;;64.30;1894.40;;;;;;5018904;28;20034;-86
2021/01/18 08:21:35;;;;;;;78.13;44.47;;;64.40;1868.80;;;;;;5001672;28;20116;-87
2021/01/18 08:24:06;;;;;;;90.57;49.47;;;64.20;1843.20;;;;;;5001120;28;20038;-87
2021/01/18 08:27:00;;;;;;;70.93;44.87;;;64.00;1843.20;;;;;;5001681;28;20054;-86
2021/01/18 08:29:46;;;;;;;77.50;47.20;;;39.20;1817.60;;;;;;5001397;28;20017;-85
2021/01/18 08:32:24;;;;;;;68.17;38.50;;;38.80;1817.60;;;;;;5006230;28;20026;-87
2021/01/18 08:34:52;;;;;;;73.60;42.83;;;38.80;1792.00;;;;;;5009735;28;20030;-88
2021/01/18 08:37:18;;;;;;;72.53;39.60;;;38.70;1920.00;;;;;;5010418;28;20041;-89
2021/01/18 08:39:54;;;;;;;72.43;39.77;;;13.70;1766.40;;;;;;5011132;28;20002;-87
2021/01/18 08:42:35;;;;;;;61.83;33.33;;;13.50;1740.80;;;;;;5007516;28;20400;-84
2021/01/18 08:45:11;;;;;;;56.40;33.20;;;13.40;1740.80;;;;;;5003085;28;20470;-87
2021/01/18 08:47:43;;;;;;;56.13;31.93;;;13.20;1740.80;;;;;;5004475;28;20113;-90
2021/01/18 08:50:21;;;;;;;69.10;37.07;;;13.30;1715.20;;;;;;5000045;28;20526;-89
2021/01/18 08:52:53;;;;;;;65.37;37.77;;;13.10;1715.20;;;;;;5002372;28;20036;-89
2021/01/18 08:55:31;;;;;;;62.60;34.57;;;12.90;1664.00;;;;;;5006406;28;20076;-89
2021/01/18 08:58:04;;;;;;;67.93;40.10;;;12.90;1638.40;;;;;;5004973;28;20534;-89
2021/01/18 09:00:44;;;;;;;68.20;38.87;;;0.20;1638.40;;;;;;5004605;28;20033;-89
2021/01/18 09:03:16;;;;;;;86.13;52.07;;;0.40;1638.40;;;;;;5004996;28;20018;-89
2021/01/18 09:05:42;;;;;;;84.82;52.17;;;0.40;1587.20;;;;;;5005349;28;20427;-84
2021/01/18 09:08:08;;;;;;;99.90;55.80;;;0.70;1638.40;;;;;;5002666;28;20062;-87
2021/01/18 09:10:35;;;;;;;71.10;42.20;;;0.80;1612.80;;;;;;5000456;28;20045;-84
2021/01/18 09:13:03;;;;;;;56.07;36.80;;;25.60;1612.80;;;;;;5000032;28;20026;-83
2021/01/18 09:15:29;;;;;;;67.47;39.63;;;25.80;1587.20;;;;;;5002478;28;20135;-83
2021/01/18 09:17:55;;;;;;;70.87;47.20;;;25.90;1561.60;;;;;;5002442;28;20018;-84
2021/01/18 09:20:21;;;;;;;77.30;44.87;;;26.00;1561.60;;;;;;5003922;28;20414;-86
2021/01/18 09:22:47;;;;;;;89.23;50.23;;;26.00;1561.60;;;;;;5001507;28;20098;-86
2021/01/18 09:25:15;;;;;;;66.67;43.17;;;26.20;1561.60;;;;;;5001834;28;20085;-83
2021/01/18 09:27:41;;;;;;;78.00;42.27;;;52.00;1484.80;;;;;;5005051;28;20025;-87
2021/01/18 09:30:08;;;;;;;70.07;38.17;;;51.40;1510.40;;;;;;5004159;28;20069;-89
2021/01/18 09:32:36;;;;;;;67.53;38.60;;;51.30;1510.40;;;;;;5006081;28;20033;-85
2021/01/18 09:35:30;;;;;;;71.53;42.77;;;51.30;1510.40;;;;;;5010724;28;20044;-85
2021/01/18 09:37:56;;;;;;;;;;;26.50;1510.40;;;;;;4919882;29;20028;-85
2021/01/18 09:40:22;;;;;;;70.37;41.27;;;26.40;1510.40;;;;;;4935066;29;19911;-85
2021/01/18 09:42:52;;;;;;;60.17;34.60;;;26.30;1510.40;;;;;;4921236;29;20072;-83
2021/01/18 09:45:17;;;;;;;72.90;40.70;;;26.40;1612.80;;;;;;4921457;29;20016;-84
2021/01/18 09:47:43;;;;;;;74.73;43.53;;;51.70;1868.80;;;;;;4925645;29;20865;-85
2021/01/18 09:50:13;;;;;;;84.97;50.10;;;51.40;1510.40;;;;;;4920744;29;20044;-89
2021/01/18 09:52:48;;;;;;;68.00;37.00;;;26.50;1536.00;;;;;;4919216;29;20019;-88
2021/01/18 09:55:23;;;;;;;56.43;31.37;;;51.50;1484.80;;;;;;4899169;29;20044;-82
2021/01/18 09:58:03;;;;;;;46.80;26.50;;;51.80;1817.60;;;;;;4908656;29;20021;-89
2021/01/18 10:00:38;;;;;;;41.50;23.83;;;52.00;1382.40;;;;;;4913856;29;20391;-90
2021/01/18 10:03:04;;;;;;;34.87;20.87;;;51.30;1433.60;;;;;;4909449;29;20067;-88
2021/01/18 10:05:40;;;;;;;34.70;19.73;;;51.30;1408.00;;;;;;4915372;29;20024;-88
2021/01/18 10:08:24;;;;;;;29.83;18.40;;;52.00;1356.80;;;;;;4910374;29;20041;-88
2021/01/18 10:10:51;;;;;;;31.03;19.43;;;52.00;1280.00;;;;;;4925709;29;20046;-89
2021/01/18 10:13:20;;;;;;;26.03;16.50;;;51.80;1305.60;;;;;;4919051;29;20039;-90
2021/01/18 10:15:48;;;;;;;19.57;11.07;;;51.30;1382.40;;;;;;4981959;28;20093;-90
2021/01/18 10:18:42;;;;;;;22.10;13.33;;;51.30;1331.20;;;;;;4995433;28;20026;-90
2021/01/18 10:21:12;;;;;;;26.87;16.73;;;51.30;1382.40;;;;;;4983876;28;20157;-86
2021/01/18 10:23:48;;;;;;;23.87;14.30;;;51.20;1408.00;;;;;;4985697;28;20064;-88
2021/01/18 10:26:20;;;;;;;25.47;15.20;;;26.20;1382.40;;;;;;4989933;28;20124;-90
2021/01/18 10:28:50;;;;;;;18.77;11.20;;;26.10;1382.40;;;;;;4983948;28;20044;-94
2021/01/18 10:31:25;;;;;;;23.10;16.00;;;25.90;1356.80;;;;;;4981001;28;20040;-93
2021/01/18 10:34:35;;;;;;;22.60;14.03;;;26.00;1382.40;;;;;;5073822;23;20077;-92
2021/01/18 10:37:19;;;;;;;22.37;13.60;;;26.00;1356.80;;;;;;4942607;29;20071;-91
2021/01/18 10:39:46;;;;;;;22.70;16.10;;;26.00;1356.80;;;;;;4953941;28;20034;-94
2021/01/18 10:42:17;;;;;;;41.37;24.03;;;25.80;1382.40;;;;;;4964239;28;20015;-92
2021/01/18 10:44:50;;;;;;;51.10;30.83;;;25.80;1433.60;;;;;;4967939;28;20033;-93
2021/01/18 10:47:20;;;;;;;27.03;16.87;;;25.70;1408.00;;;;;;4961714;28;20082;-93
2021/01/18 10:50:01;;;;;;;32.97;21.73;;;0.90;1382.40;;;;;;4960761;29;20138;-92
2021/01/18 10:52:34;;;;;;;39.13;24.30;;;0.90;1433.60;;;;;;4966466;28;20023;-92
2021/01/18 10:55:07;;;;;;;44.00;24.47;;;0.80;1510.40;;;;;;4967047;28;20034;-95
2021/01/18 10:58:07;;;;;;;34.80;19.83;;;0.80;1510.40;;;;;;4969891;28;20018;-96
2021/01/18 11:00:37;;;;;;;52.13;28.17;;;0.80;1433.60;;;;;;4970310;28;20127;-93
2021/01/18 11:03:04;;;;;;;36.43;19.70;;;0.70;1433.60;;;;;;4949847;28;20039;-88
2021/01/18 11:05:38;;;;;;;26.00;13.73;;;0.60;1484.80;;;;;;4949742;28;20035;-88
2021/01/18 11:08:08;;;;;;;38.70;20.20;;;0.60;1510.40;;;;;;4956682;28;20023;-87
2021/01/18 11:10:43;;;;;;;24.90;16.30;;;0.60;1484.80;;;;;;4963865;28;20038;-89
2021/01/18 11:13:11;;;;;;;24.80;15.70;;;0.50;1484.80;;;;;;4957444;29;20024;-94
2021/01/18 11:15:39;;;;;;;37.63;22.97;;;0.40;1433.60;;;;;;4942839;29;20030;-95
2021/01/18 11:18:12;;;;;;;28.47;16.83;;;0.60;1433.60;;;;;;4935049;29;20037;-96
2021/01/18 11:20:39;;;;;;;15.25;10.52;;;0.60;1433.60;;;;;;4928758;29;20055;-93
2021/01/18 11:23:09;;;;;;;24.77;16.87;;;0.60;1382.40;;;;;;4939221;29;20057;-93
2021/01/18 11:25:36;;;;;;;21.43;13.80;;;0.70;1459.20;;;;;;4940860;29;20027;-93
2021/01/18 11:28:15;;;;;;;25.63;13.20;;;0.70;1433.60;;;;;;4942148;29;20087;-92
2021/01/18 11:30:41;;;;;;;32.27;18.47;;;0.70;1408.00;;;;;;4942971;29;20044;-91
2021/01/18 11:33:11;;;;;;;36.43;20.47;;;0.50;1433.60;;;;;;4942719;29;20044;-92
2021/01/18 11:35:47;;;;;;;18.60;11.87;;;0.80;1433.60;;;;;;4935422;28;20055;-93
2021/01/18 11:38:14;;;;;;;35.77;21.93;;;0.90;1408.00;;;;;;4941808;29;20063;-89
2021/01/18 11:40:40;;;;;;;29.70;18.43;;;25.70;1382.40;;;;;;4940551;29;20031;-89
2021/01/18 11:43:06;;;;;;;27.87;16.87;;;26.10;1408.00;;;;;;4953821;29;20042;-91
2021/01/18 11:45:31;;;;;;;44.43;26.53;;;26.30;1356.80;;;;;;4951908;29;20044;-92
2021/01/18 11:47:57;;;;;;;31.00;17.23;;;26.30;1382.40;;;;;;4940895;29;20592;-91
2021/01/18 11:50:23;;;;;;;23.97;13.87;;;51.20;1331.20;;;;;;4939666;29;20043;-92
2021/01/18 11:55:21;;;;;;;24.67;16.10;;;51.90;1203.20;;;;;;4955210;29;20035;-90
2021/01/18 11:57:49;;;;;;;29.73;15.77;;;52.00;1280.00;;;;;;4945938;28;20121;-91
2021/01/18 12:00:21;;;;;;;25.27;14.20;;;77.10;1254.40;;;;;;4959665;28;20035;-91
2021/01/18 12:02:47;;;;;;;33.25;18.58;;;77.50;1254.40;;;;;;4958927;28;20085;-92
2021/01/18 12:05:13;;;;;;;34.43;20.43;;;77.70;1203.20;;;;;;4958413;28;20485;-91
2021/01/18 12:07:39;;;;;;;25.43;16.70;;;102.60;1177.60;;;;;;4958464;28;20073;-91
2021/01/18 12:10:06;;;;;;;28.37;18.70;;;102.80;1228.80;;;;;;4958798;28;20408;-90
2021/01/18 12:12:37;;;;;;;28.70;18.53;;;102.50;1152.00;;;;;;4958935;28;20031;-90
2021/01/18 12:15:03;;;;;;;25.13;17.43;;;102.80;1177.60;;;;;;4958860;28;20588;-91
2021/01/18 12:17:29;;;;;;;54.07;29.60;;;102.70;1177.60;;;;;;4959365;28;20470;-90
2021/01/18 12:19:54;;;;;;;20.07;12.43;;;102.60;1177.60;;;;;;4959108;28;20034;-89
2021/01/18 12:22:20;;;;;;;34.63;22.90;;;102.50;1126.40;;;;;;4961847;28;20539;-89
2021/01/18 12:24:46;;;;;;;35.27;22.97;;;102.50;1126.40;;;;;;4961264;28;20034;-87
2021/01/18 12:27:11;;;;;;;39.73;22.03;;;77.50;1177.60;;;;;;4961680;28;20015;-88
2021/01/18 12:29:37;;;;;;;43.13;25.77;;;77.00;1152.00;;;;;;4953225;29;20118;-88
2021/01/18 12:32:05;;;;;;;33.87;18.70;;;51.20;1280.00;;;;;;4958665;29;20031;-88